Merritt, North Carolina
Current Conditions -  °F | °C
As of 9:56 AM on Wednesday 26 Nov 2014 (Local Time) from KNBT Reporting Station
Moderate Rain Moderate Rain  
Wind Chill: 74°   Ceiling: 12000
Heat Index: 74°   Visibility: 4mi
Dew Point: 70°   Wind: 18mph
Humidity: 87%   Direction: 180°S
Pressure: 29.72"   Gusts: NA
Location:  35.1°N, 76.71°W
Report Text: KNBT 261456Z AUTO 18016KT 4SM RA BR FEW023 SCT044 OVC120 23/21 A2972 RMK AO2 SLP069 6//// T02330211 56020 PNO
Loading
Personal Weather Stations






























Interactive Weather Map New forecast layout! Learn more

10-Day Weather Forecast

Advertisements
Track Severe Weather on mobile